sensor_id;sensor_type;location;lat;lon;timestamp;P1;durP1;ratioP1;P2;durP2;ratioP2
51901;SDS011;37929;53.218;6.548;2023-12-20T00:01:58;13.10;;;2.72;;
51901;SDS011;37929;53.218;6.548;2023-12-20T00:04:23;14.38;;;2.35;;
51901;SDS011;37929;53.218;6.548;2023-12-20T00:06:49;12.43;;;2.28;;
51901;SDS011;37929;53.218;6.548;2023-12-20T00:09:15;12.57;;;2.53;;
51901;SDS011;37929;53.218;6.548;2023-12-20T00:11:40;12.02;;;2.83;;
51901;SDS011;37929;53.218;6.548;2023-12-20T00:14:07;9.40;;;2.28;;
51901;SDS011;37929;53.218;6.548;2023-12-20T00:16:33;8.07;;;2.03;;
51901;SDS011;37929;53.218;6.548;2023-12-20T00:18:58;6.07;;;1.85;;
51901;SDS011;37929;53.218;6.548;2023-12-20T00:21:24;20.52;;;7.38;;
51901;SDS011;37929;53.218;6.548;2023-12-20T00:23:50;12.75;;;3.55;;
51901;SDS011;37929;53.218;6.548;2023-12-20T00:26:15;8.77;;;2.00;;
51901;SDS011;37929;53.218;6.548;2023-12-20T00:28:41;13.38;;;2.83;;
51901;SDS011;37929;53.218;6.548;2023-12-20T00:31:07;10.95;;;2.25;;
51901;SDS011;37929;53.218;6.548;2023-12-20T00:33:33;16.17;;;2.22;;
51901;SDS011;37929;53.218;6.548;2023-12-20T00:35:59;10.05;;;2.33;;
51901;SDS011;37929;53.218;6.548;2023-12-20T00:38:25;15.40;;;2.55;;
51901;SDS011;37929;53.218;6.548;2023-12-20T00:40:51;15.45;;;3.50;;
51901;SDS011;37929;53.218;6.548;2023-12-20T00:43:17;10.80;;;2.67;;
51901;SDS011;37929;53.218;6.548;2023-12-20T00:45:42;10.25;;;2.58;;
51901;SDS011;37929;53.218;6.548;2023-12-20T00:48:08;6.35;;;2.17;;
51901;SDS011;37929;53.218;6.548;2023-12-20T00:50:34;7.85;;;1.88;;
51901;SDS011;37929;53.218;6.548;2023-12-20T00:52:59;12.07;;;1.80;;
51901;SDS011;37929;53.218;6.548;2023-12-20T00:55:25;9.40;;;1.95;;
51901;SDS011;37929;53.218;6.548;2023-12-20T00:57:51;12.55;;;2.15;;
51901;SDS011;37929;53.218;6.548;2023-12-20T01:00:18;11.63;;;2.60;;
51901;SDS011;37929;53.218;6.548;2023-12-20T01:02:44;11.30;;;2.05;;
51901;SDS011;37929;53.218;6.548;2023-12-20T01:05:11;10.15;;;2.17;;
51901;SDS011;37929;53.218;6.548;2023-12-20T01:07:37;10.48;;;2.42;;
51901;SDS011;37929;53.218;6.548;2023-12-20T01:10:03;15.43;;;2.60;;
51901;SDS011;37929;53.218;6.548;2023-12-20T01:12:29;13.30;;;2.40;;
51901;SDS011;37929;53.218;6.548;2023-12-20T01:14:54;14.95;;;2.55;;
51901;SDS011;37929;53.218;6.548;2023-12-20T01:17:20;9.30;;;2.13;;
51901;SDS011;37929;53.218;6.548;2023-12-20T01:19:46;13.02;;;2.58;;
51901;SDS011;37929;53.218;6.548;2023-12-20T01:22:11;14.00;;;3.28;;
51901;SDS011;37929;53.218;6.548;2023-12-20T01:24:37;12.95;;;2.17;;
51901;SDS011;37929;53.218;6.548;2023-12-20T01:27:03;15.50;;;3.20;;
51901;SDS011;37929;53.218;6.548;2023-12-20T01:29:30;11.93;;;2.03;;
51901;SDS011;37929;53.218;6.548;2023-12-20T01:31:56;10.30;;;2.28;;
51901;SDS011;37929;53.218;6.548;2023-12-20T01:34:22;14.38;;;2.75;;
51901;SDS011;37929;53.218;6.548;2023-12-20T01:36:48;15.32;;;4.47;;
51901;SDS011;37929;53.218;6.548;2023-12-20T01:39:13;12.60;;;2.38;;
51901;SDS011;37929;53.218;6.548;2023-12-20T01:41:39;14.68;;;2.90;;
51901;SDS011;37929;53.218;6.548;2023-12-20T01:44:05;12.57;;;2.17;;
51901;SDS011;37929;53.218;6.548;2023-12-20T01:46:30;15.07;;;2.90;;
51901;SDS011;37929;53.218;6.548;2023-12-20T01:48:56;19.38;;;3.83;;
51901;SDS011;37929;53.218;6.548;2023-12-20T01:51:23;8.65;;;2.40;;
51901;SDS011;37929;53.218;6.548;2023-12-20T01:53:50;13.43;;;2.22;;
51901;SDS011;37929;53.218;6.548;2023-12-20T01:56:18;11.75;;;2.97;;
51901;SDS011;37929;53.218;6.548;2023-12-20T01:58:45;14.55;;;3.13;;
51901;SDS011;37929;53.218;6.548;2023-12-20T02:01:12;12.32;;;3.63;;
51901;SDS011;37929;53.218;6.548;2023-12-20T02:03:39;15.80;;;4.53;;
51901;SDS011;37929;53.218;6.548;2023-12-20T02:06:07;13.02;;;4.05;;
51901;SDS011;37929;53.218;6.548;2023-12-20T02:08:33;8.15;;;2.78;;
51901;SDS011;37929;53.218;6.548;2023-12-20T02:10:59;14.65;;;4.10;;
51901;SDS011;37929;53.218;6.548;2023-12-20T02:13:25;12.75;;;4.70;;
51901;SDS011;37929;53.218;6.548;2023-12-20T02:15:52;18.38;;;5.18;;
51901;SDS011;37929;53.218;6.548;2023-12-20T02:18:17;11.95;;;3.95;;
51901;SDS011;37929;53.218;6.548;2023-12-20T02:20:43;8.25;;;2.30;;
51901;SDS011;37929;53.218;6.548;2023-12-20T02:23:09;11.20;;;2.70;;
51901;SDS011;37929;53.218;6.548;2023-12-20T02:25:35;21.38;;;4.68;;
51901;SDS011;37929;53.218;6.548;2023-12-20T02:28:01;13.88;;;3.13;;
51901;SDS011;37929;53.218;6.548;2023-12-20T02:30:28;11.07;;;2.05;;
51901;SDS011;37929;53.218;6.548;2023-12-20T02:32:53;12.45;;;2.63;;
51901;SDS011;37929;53.218;6.548;2023-12-20T02:35:19;14.45;;;2.53;;
51901;SDS011;37929;53.218;6.548;2023-12-20T02:37:45;13.18;;;3.03;;
51901;SDS011;37929;53.218;6.548;2023-12-20T02:40:11;19.55;;;3.10;;
51901;SDS011;37929;53.218;6.548;2023-12-20T02:42:36;11.88;;;2.90;;
51901;SDS011;37929;53.218;6.548;2023-12-20T02:45:02;13.68;;;3.67;;
51901;SDS011;37929;53.218;6.548;2023-12-20T02:47:28;17.05;;;3.70;;
51901;SDS011;37929;53.218;6.548;2023-12-20T02:49:55;12.75;;;3.10;;
51901;SDS011;37929;53.218;6.548;2023-12-20T02:52:21;16.60;;;4.90;;
51901;SDS011;37929;53.218;6.548;2023-12-20T02:54:49;20.00;;;3.70;;
51901;SDS011;37929;53.218;6.548;2023-12-20T02:57:14;14.68;;;3.45;;
51901;SDS011;37929;53.218;6.548;2023-12-20T02:59:40;14.95;;;3.70;;
51901;SDS011;37929;53.218;6.548;2023-12-20T03:02:06;14.05;;;3.95;;
51901;SDS011;37929;53.218;6.548;2023-12-20T03:04:31;15.45;;;3.22;;
51901;SDS011;37929;53.218;6.548;2023-12-20T03:06:57;23.08;;;3.50;;
51901;SDS011;37929;53.218;6.548;2023-12-20T03:09:23;17.00;;;2.97;;
51901;SDS011;37929;53.218;6.548;2023-12-20T03:11:48;17.70;;;3.25;;
51901;SDS011;37929;53.218;6.548;2023-12-20T03:14:14;15.13;;;3.53;;
51901;SDS011;37929;53.218;6.548;2023-12-20T03:16:40;22.90;;;3.75;;
51901;SDS011;37929;53.218;6.548;2023-12-20T03:19:05;27.48;;;5.07;;
51901;SDS011;37929;53.218;6.548;2023-12-20T03:21:31;19.48;;;4.13;;
51901;SDS011;37929;53.218;6.548;2023-12-20T03:23:57;22.08;;;3.97;;
51901;SDS011;37929;53.218;6.548;2023-12-20T03:26:22;17.58;;;3.38;;
51901;SDS011;37929;53.218;6.548;2023-12-20T03:28:48;22.63;;;4.57;;
51901;SDS011;37929;53.218;6.548;2023-12-20T03:31:14;24.58;;;5.15;;
51901;SDS011;37929;53.218;6.548;2023-12-20T03:33:40;16.92;;;5.30;;
51901;SDS011;37929;53.218;6.548;2023-12-20T03:36:05;20.65;;;5.03;;
51901;SDS011;37929;53.218;6.548;2023-12-20T03:38:31;16.52;;;5.95;;
51901;SDS011;37929;53.218;6.548;2023-12-20T03:40:57;19.17;;;4.25;;
51901;SDS011;37929;53.218;6.548;2023-12-20T03:43:23;13.85;;;3.60;;
51901;SDS011;37929;53.218;6.548;2023-12-20T03:45:48;14.85;;;3.72;;
51901;SDS011;37929;53.218;6.548;2023-12-20T03:48:14;25.52;;;4.35;;
51901;SDS011;37929;53.218;6.548;2023-12-20T03:50:40;24.30;;;4.90;;
51901;SDS011;37929;53.218;6.548;2023-12-20T03:53:06;14.38;;;4.55;;
51901;SDS011;37929;53.218;6.548;2023-12-20T03:55:31;20.42;;;4.43;;
51901;SDS011;37929;53.218;6.548;2023-12-20T03:57:57;15.85;;;3.97;;
51901;SDS011;37929;53.218;6.548;2023-12-20T04:00:23;19.00;;;3.90;;
51901;SDS011;37929;53.218;6.548;2023-12-20T04:02:48;21.83;;;5.68;;
51901;SDS011;37929;53.218;6.548;2023-12-20T04:05:14;15.00;;;4.05;;
51901;SDS011;37929;53.218;6.548;2023-12-20T04:07:40;20.30;;;3.78;;
51901;SDS011;37929;53.218;6.548;2023-12-20T04:10:05;19.70;;;3.38;;
51901;SDS011;37929;53.218;6.548;2023-12-20T04:12:32;17.70;;;3.67;;
51901;SDS011;37929;53.218;6.548;2023-12-20T04:14:58;16.58;;;3.95;;
51901;SDS011;37929;53.218;6.548;2023-12-20T04:17:24;18.42;;;3.40;;
51901;SDS011;37929;53.218;6.548;2023-12-20T04:19:50;19.70;;;4.97;;
51901;SDS011;37929;53.218;6.548;2023-12-20T04:22:17;28.63;;;6.53;;
51901;SDS011;37929;53.218;6.548;2023-12-20T04:24:43;21.00;;;5.80;;
51901;SDS011;37929;53.218;6.548;2023-12-20T04:27:09;18.88;;;3.30;;
51901;SDS011;37929;53.218;6.548;2023-12-20T04:29:35;23.67;;;3.97;;
51901;SDS011;37929;53.218;6.548;2023-12-20T04:32:00;18.08;;;3.85;;
51901;SDS011;37929;53.218;6.548;2023-12-20T04:34:26;27.17;;;5.97;;
51901;SDS011;37929;53.218;6.548;2023-12-20T04:36:52;22.92;;;5.30;;
51901;SDS011;37929;53.218;6.548;2023-12-20T04:39:18;24.92;;;6.45;;
51901;SDS011;37929;53.218;6.548;2023-12-20T04:41:44;25.92;;;6.18;;
51901;SDS011;37929;53.218;6.548;2023-12-20T04:44:09;20.30;;;4.57;;
51901;SDS011;37929;53.218;6.548;2023-12-20T04:46:35;16.73;;;4.63;;
51901;SDS011;37929;53.218;6.548;2023-12-20T04:49:01;18.92;;;3.80;;
51901;SDS011;37929;53.218;6.548;2023-12-20T04:51:27;19.63;;;4.20;;
51901;SDS011;37929;53.218;6.548;2023-12-20T04:53:52;15.70;;;3.90;;
51901;SDS011;37929;53.218;6.548;2023-12-20T04:56:18;16.30;;;3.22;;
51901;SDS011;37929;53.218;6.548;2023-12-20T04:58:44;18.42;;;4.03;;
51901;SDS011;37929;53.218;6.548;2023-12-20T05:01:10;15.80;;;3.45;;
51901;SDS011;37929;53.218;6.548;2023-12-20T05:03:36;21.75;;;3.95;;
51901;SDS011;37929;53.218;6.548;2023-12-20T05:06:02;23.27;;;3.92;;
51901;SDS011;37929;53.218;6.548;2023-12-20T05:08:28;18.48;;;3.60;;
51901;SDS011;37929;53.218;6.548;2023-12-20T05:10:54;19.48;;;3.53;;
51901;SDS011;37929;53.218;6.548;2023-12-20T05:13:20;19.15;;;3.50;;
51901;SDS011;37929;53.218;6.548;2023-12-20T05:15:46;19.85;;;5.15;;
51901;SDS011;37929;53.218;6.548;2023-12-20T05:18:12;19.08;;;3.88;;
51901;SDS011;37929;53.218;6.548;2023-12-20T05:20:38;21.73;;;3.88;;
51901;SDS011;37929;53.218;6.548;2023-12-20T05:23:05;21.13;;;3.88;;
51901;SDS011;37929;53.218;6.548;2023-12-20T05:25:31;17.45;;;4.20;;
51901;SDS011;37929;53.218;6.548;2023-12-20T05:27:57;26.90;;;4.63;;
51901;SDS011;37929;53.218;6.548;2023-12-20T05:30:22;22.80;;;4.10;;
51901;SDS011;37929;53.218;6.548;2023-12-20T05:32:48;20.55;;;5.07;;
51901;SDS011;37929;53.218;6.548;2023-12-20T05:35:14;20.77;;;3.38;;
51901;SDS011;37929;53.218;6.548;2023-12-20T05:37:40;17.90;;;3.20;;
51901;SDS011;37929;53.218;6.548;2023-12-20T05:40:07;16.95;;;3.40;;
51901;SDS011;37929;53.218;6.548;2023-12-20T05:42:35;27.55;;;4.10;;
51901;SDS011;37929;53.218;6.548;2023-12-20T05:45:02;15.88;;;3.95;;
51901;SDS011;37929;53.218;6.548;2023-12-20T05:47:30;14.25;;;2.88;;
51901;SDS011;37929;53.218;6.548;2023-12-20T05:49:56;16.05;;;3.75;;
51901;SDS011;37929;53.218;6.548;2023-12-20T05:52:21;18.88;;;4.13;;
51901;SDS011;37929;53.218;6.548;2023-12-20T05:54:47;18.75;;;3.13;;
51901;SDS011;37929;53.218;6.548;2023-12-20T05:57:13;17.95;;;3.80;;
51901;SDS011;37929;53.218;6.548;2023-12-20T05:59:39;22.08;;;3.75;;
51901;SDS011;37929;53.218;6.548;2023-12-20T06:02:05;19.65;;;4.68;;
51901;SDS011;37929;53.218;6.548;2023-12-20T06:04:31;20.92;;;5.60;;
51901;SDS011;37929;53.218;6.548;2023-12-20T06:06:57;15.45;;;6.03;;
51901;SDS011;37929;53.218;6.548;2023-12-20T06:09:23;17.90;;;4.97;;
51901;SDS011;37929;53.218;6.548;2023-12-20T06:11:49;21.55;;;5.07;;
51901;SDS011;37929;53.218;6.548;2023-12-20T06:14:14;23.27;;;5.13;;
51901;SDS011;37929;53.218;6.548;2023-12-20T06:16:40;22.92;;;6.47;;
51901;SDS011;37929;53.218;6.548;2023-12-20T06:19:06;25.13;;;5.60;;
51901;SDS011;37929;53.218;6.548;2023-12-20T06:21:31;20.60;;;4.03;;
51901;SDS011;37929;53.218;6.548;2023-12-20T06:23:58;24.17;;;5.78;;
51901;SDS011;37929;53.218;6.548;2023-12-20T06:26:24;21.95;;;5.28;;
51901;SDS011;37929;53.218;6.548;2023-12-20T06:28:50;21.77;;;5.90;;
51901;SDS011;37929;53.218;6.548;2023-12-20T06:31:16;19.80;;;6.57;;
51901;SDS011;37929;53.218;6.548;2023-12-20T06:33:42;26.42;;;5.78;;
51901;SDS011;37929;53.218;6.548;2023-12-20T06:36:12;19.55;;;4.57;;
51901;SDS011;37929;53.218;6.548;2023-12-20T06:38:38;25.35;;;6.13;;
51901;SDS011;37929;53.218;6.548;2023-12-20T06:41:04;17.25;;;4.15;;
51901;SDS011;37929;53.218;6.548;2023-12-20T06:43:31;22.30;;;4.07;;
51901;SDS011;37929;53.218;6.548;2023-12-20T06:45:57;15.75;;;3.65;;
51901;SDS011;37929;53.218;6.548;2023-12-20T06:48:23;25.33;;;4.55;;
51901;SDS011;37929;53.218;6.548;2023-12-20T06:50:49;22.90;;;3.97;;
51901;SDS011;37929;53.218;6.548;2023-12-20T06:53:15;19.20;;;4.60;;
51901;SDS011;37929;53.218;6.548;2023-12-20T06:55:44;20.42;;;5.10;;
51901;SDS011;37929;53.218;6.548;2023-12-20T06:58:09;19.23;;;4.43;;
51901;SDS011;37929;53.218;6.548;2023-12-20T07:00:35;20.50;;;4.40;;
51901;SDS011;37929;53.218;6.548;2023-12-20T07:03:01;20.55;;;5.25;;
51901;SDS011;37929;53.218;6.548;2023-12-20T07:05:27;15.85;;;6.28;;
51901;SDS011;37929;53.218;6.548;2023-12-20T07:07:52;18.90;;;4.43;;
51901;SDS011;37929;53.218;6.548;2023-12-20T07:10:18;21.73;;;4.93;;
51901;SDS011;37929;53.218;6.548;2023-12-20T07:12:45;18.70;;;5.53;;
51901;SDS011;37929;53.218;6.548;2023-12-20T07:15:10;20.25;;;5.20;;
51901;SDS011;37929;53.218;6.548;2023-12-20T07:17:36;22.05;;;4.50;;
51901;SDS011;37929;53.218;6.548;2023-12-20T07:20:02;12.82;;;3.90;;
51901;SDS011;37929;53.218;6.548;2023-12-20T07:22:29;15.98;;;3.78;;
51901;SDS011;37929;53.218;6.548;2023-12-20T07:24:58;26.92;;;5.03;;
51901;SDS011;37929;53.218;6.548;2023-12-20T07:27:28;18.02;;;4.10;;
51901;SDS011;37929;53.218;6.548;2023-12-20T07:29:54;23.00;;;4.72;;
51901;SDS011;37929;53.218;6.548;2023-12-20T07:32:20;13.55;;;3.60;;
51901;SDS011;37929;53.218;6.548;2023-12-20T07:34:46;17.67;;;4.57;;
51901;SDS011;37929;53.218;6.548;2023-12-20T07:37:12;23.65;;;5.43;;
51901;SDS011;37929;53.218;6.548;2023-12-20T07:39:39;15.27;;;4.45;;
51901;SDS011;37929;53.218;6.548;2023-12-20T07:42:06;17.27;;;4.55;;
51901;SDS011;37929;53.218;6.548;2023-12-20T07:44:32;17.80;;;4.43;;
51901;SDS011;37929;53.218;6.548;2023-12-20T07:46:58;22.13;;;3.88;;
51901;SDS011;37929;53.218;6.548;2023-12-20T07:49:26;25.88;;;4.78;;
51901;SDS011;37929;53.218;6.548;2023-12-20T07:51:52;18.42;;;4.82;;
51901;SDS011;37929;53.218;6.548;2023-12-20T07:54:17;18.45;;;4.03;;
51901;SDS011;37929;53.218;6.548;2023-12-20T07:56:43;20.08;;;4.50;;
51901;SDS011;37929;53.218;6.548;2023-12-20T07:59:09;13.38;;;4.07;;
51901;SDS011;37929;53.218;6.548;2023-12-20T08:01:35;16.50;;;4.22;;
51901;SDS011;37929;53.218;6.548;2023-12-20T08:04:01;23.20;;;4.13;;
51901;SDS011;37929;53.218;6.548;2023-12-20T08:06:26;16.65;;;5.38;;
51901;SDS011;37929;53.218;6.548;2023-12-20T08:08:52;16.00;;;3.50;;
51901;SDS011;37929;53.218;6.548;2023-12-20T08:11:18;16.90;;;3.35;;
51901;SDS011;37929;53.218;6.548;2023-12-20T08:13:44;22.48;;;4.97;;
51901;SDS011;37929;53.218;6.548;2023-12-20T08:16:10;18.52;;;5.35;;
51901;SDS011;37929;53.218;6.548;2023-12-20T08:18:38;20.42;;;5.38;;
51901;SDS011;37929;53.218;6.548;2023-12-20T08:21:04;15.15;;;2.92;;
51901;SDS011;37929;53.218;6.548;2023-12-20T08:23:32;13.38;;;3.95;;
51901;SDS011;37929;53.218;6.548;2023-12-20T08:26:03;13.68;;;3.75;;
51901;SDS011;37929;53.218;6.548;2023-12-20T08:28:32;14.20;;;2.43;;
51901;SDS011;37929;53.218;6.548;2023-12-20T08:30:57;16.63;;;3.95;;
51901;SDS011;37929;53.218;6.548;2023-12-20T08:33:23;18.60;;;4.00;;
51901;SDS011;37929;53.218;6.548;2023-12-20T08:35:49;19.55;;;3.55;;
51901;SDS011;37929;53.218;6.548;2023-12-20T08:38:15;16.35;;;3.75;;
51901;SDS011;37929;53.218;6.548;2023-12-20T08:40:41;18.45;;;3.13;;
51901;SDS011;37929;53.218;6.548;2023-12-20T08:43:07;8.15;;;1.55;;
51901;SDS011;37929;53.218;6.548;2023-12-20T08:45:36;7.93;;;1.75;;
51901;SDS011;37929;53.218;6.548;2023-12-20T08:48:03;10.50;;;1.88;;
51901;SDS011;37929;53.218;6.548;2023-12-20T08:50:29;7.55;;;1.60;;
51901;SDS011;37929;53.218;6.548;2023-12-20T08:52:55;5.88;;;0.95;;
51901;SDS011;37929;53.218;6.548;2023-12-20T08:55:21;6.05;;;1.50;;
51901;SDS011;37929;53.218;6.548;2023-12-20T08:57:47;3.97;;;1.10;;
51901;SDS011;37929;53.218;6.548;2023-12-20T09:00:14;3.90;;;1.40;;
51901;SDS011;37929;53.218;6.548;2023-12-20T09:02:41;5.38;;;1.60;;
51901;SDS011;37929;53.218;6.548;2023-12-20T09:05:07;7.10;;;1.50;;
51901;SDS011;37929;53.218;6.548;2023-12-20T09:07:32;7.47;;;1.67;;
51901;SDS011;37929;53.218;6.548;2023-12-20T09:09:58;10.20;;;2.05;;
51901;SDS011;37929;53.218;6.548;2023-12-20T09:12:24;8.25;;;2.03;;
51901;SDS011;37929;53.218;6.548;2023-12-20T09:14:50;12.70;;;2.40;;
51901;SDS011;37929;53.218;6.548;2023-12-20T09:17:17;10.02;;;2.35;;
51901;SDS011;37929;53.218;6.548;2023-12-20T09:19:43;9.13;;;1.80;;
51901;SDS011;37929;53.218;6.548;2023-12-20T09:22:10;6.72;;;1.42;;
51901;SDS011;37929;53.218;6.548;2023-12-20T09:24:36;5.43;;;1.45;;
51901;SDS011;37929;53.218;6.548;2023-12-20T09:27:02;10.85;;;1.58;;
51901;SDS011;37929;53.218;6.548;2023-12-20T09:29:28;6.32;;;1.33;;
51901;SDS011;37929;53.218;6.548;2023-12-20T09:31:54;4.50;;;1.17;;
51901;SDS011;37929;53.218;6.548;2023-12-20T09:34:20;10.07;;;1.55;;
51901;SDS011;37929;53.218;6.548;2023-12-20T09:36:47;9.85;;;1.40;;
51901;SDS011;37929;53.218;6.548;2023-12-20T09:39:13;3.97;;;1.00;;
51901;SDS011;37929;53.218;6.548;2023-12-20T09:41:51;5.75;;;1.15;;
51901;SDS011;37929;53.218;6.548;2023-12-20T09:44:30;5.68;;;1.65;;
51901;SDS011;37929;53.218;6.548;2023-12-20T09:46:59;6.22;;;1.60;;
51901;SDS011;37929;53.218;6.548;2023-12-20T09:49:30;4.28;;;1.00;;
51901;SDS011;37929;53.218;6.548;2023-12-20T09:51:57;4.43;;;1.10;;
51901;SDS011;37929;53.218;6.548;2023-12-20T09:54:25;5.22;;;1.27;;
51901;SDS011;37929;53.218;6.548;2023-12-20T09:56:53;5.38;;;1.17;;
51901;SDS011;37929;53.218;6.548;2023-12-20T09:59:19;6.30;;;1.58;;
51901;SDS011;37929;53.218;6.548;2023-12-20T10:01:45;13.25;;;1.65;;
51901;SDS011;37929;53.218;6.548;2023-12-20T10:04:11;7.32;;;1.88;;
51901;SDS011;37929;53.218;6.548;2023-12-20T10:06:42;8.20;;;1.50;;
51901;SDS011;37929;53.218;6.548;2023-12-20T10:09:08;4.55;;;1.48;;
51901;SDS011;37929;53.218;6.548;2023-12-20T10:11:38;11.00;;;1.77;;
51901;SDS011;37929;53.218;6.548;2023-12-20T10:14:05;8.13;;;1.88;;
51901;SDS011;37929;53.218;6.548;2023-12-20T10:16:32;7.40;;;1.38;;
51901;SDS011;37929;53.218;6.548;2023-12-20T10:18:58;8.23;;;1.33;;
51901;SDS011;37929;53.218;6.548;2023-12-20T10:21:25;7.22;;;1.55;;
51901;SDS011;37929;53.218;6.548;2023-12-20T10:23:54;7.25;;;1.83;;
51901;SDS011;37929;53.218;6.548;2023-12-20T10:26:20;5.15;;;1.20;;
51901;SDS011;37929;53.218;6.548;2023-12-20T10:28:50;10.20;;;2.00;;
51901;SDS011;37929;53.218;6.548;2023-12-20T10:33:53;9.05;;;1.70;;
51901;SDS011;37929;53.218;6.548;2023-12-20T10:36:25;7.78;;;1.75;;
51901;SDS011;37929;53.218;6.548;2023-12-20T10:38:52;9.13;;;1.88;;
51901;SDS011;37929;53.218;6.548;2023-12-20T10:41:24;7.78;;;1.75;;
51901;SDS011;37929;53.218;6.548;2023-12-20T10:43:53;11.95;;;1.80;;
51901;SDS011;37929;53.218;6.548;2023-12-20T10:46:21;9.95;;;1.95;;
51901;SDS011;37929;53.218;6.548;2023-12-20T10:48:51;11.95;;;1.83;;
51901;SDS011;37929;53.218;6.548;2023-12-20T10:51:19;4.00;;;1.65;;
51901;SDS011;37929;53.218;6.548;2023-12-20T10:53:52;13.18;;;3.05;;
51901;SDS011;37929;53.218;6.548;2023-12-20T10:56:19;13.43;;;2.33;;
51901;SDS011;37929;53.218;6.548;2023-12-20T10:58:49;7.95;;;2.88;;
51901;SDS011;37929;53.218;6.548;2023-12-20T11:01:16;11.43;;;2.55;;
51901;SDS011;37929;53.218;6.548;2023-12-20T11:03:44;10.48;;;2.13;;
51901;SDS011;37929;53.218;6.548;2023-12-20T11:14:39;10.80;;;2.30;;
51901;SDS011;37929;53.218;6.548;2023-12-20T11:17:12;11.63;;;2.50;;
51901;SDS011;37929;53.218;6.548;2023-12-20T11:22:30;8.93;;;2.55;;
51901;SDS011;37929;53.218;6.548;2023-12-20T11:25:03;17.80;;;3.85;;
51901;SDS011;37929;53.218;6.548;2023-12-20T11:27:34;15.15;;;2.40;;
51901;SDS011;37929;53.218;6.548;2023-12-20T11:30:00;13.25;;;2.92;;
51901;SDS011;37929;53.218;6.548;2023-12-20T11:32:33;16.30;;;4.15;;
51901;SDS011;37929;53.218;6.548;2023-12-20T11:35:00;10.00;;;2.30;;
51901;SDS011;37929;53.218;6.548;2023-12-20T11:37:43;17.80;;;2.77;;
51901;SDS011;37929;53.218;6.548;2023-12-20T11:40:13;10.18;;;2.65;;
51901;SDS011;37929;53.218;6.548;2023-12-20T11:42:43;13.32;;;3.42;;
51901;SDS011;37929;53.218;6.548;2023-12-20T11:45:11;12.05;;;3.00;;
51901;SDS011;37929;53.218;6.548;2023-12-20T11:47:43;10.55;;;3.00;;
51901;SDS011;37929;53.218;6.548;2023-12-20T11:50:11;22.33;;;4.10;;
51901;SDS011;37929;53.218;6.548;2023-12-20T11:52:40;18.10;;;3.80;;
51901;SDS011;37929;53.218;6.548;2023-12-20T11:55:05;11.95;;;3.75;;
51901;SDS011;37929;53.218;6.548;2023-12-20T11:57:31;16.40;;;4.22;;
51901;SDS011;37929;53.218;6.548;2023-12-20T11:59:57;14.00;;;3.85;;
51901;SDS011;37929;53.218;6.548;2023-12-20T12:02:24;15.43;;;3.95;;
51901;SDS011;37929;53.218;6.548;2023-12-20T12:04:49;14.02;;;3.20;;
51901;SDS011;37929;53.218;6.548;2023-12-20T12:07:18;17.17;;;4.88;;
51901;SDS011;37929;53.218;6.548;2023-12-20T12:09:45;17.15;;;5.82;;
51901;SDS011;37929;53.218;6.548;2023-12-20T12:12:12;16.20;;;4.53;;
51901;SDS011;37929;53.218;6.548;2023-12-20T12:14:47;15.35;;;4.40;;
51901;SDS011;37929;53.218;6.548;2023-12-20T12:17:14;15.95;;;3.30;;
51901;SDS011;37929;53.218;6.548;2023-12-20T12:19:43;11.35;;;3.05;;
51901;SDS011;37929;53.218;6.548;2023-12-20T12:22:13;9.32;;;2.38;;
51901;SDS011;37929;53.218;6.548;2023-12-20T12:24:40;15.40;;;2.70;;
51901;SDS011;37929;53.218;6.548;2023-12-20T12:27:07;11.25;;;2.25;;
51901;SDS011;37929;53.218;6.548;2023-12-20T12:29:33;8.82;;;2.30;;
51901;SDS011;37929;53.218;6.548;2023-12-20T12:32:00;10.90;;;2.30;;
51901;SDS011;37929;53.218;6.548;2023-12-20T12:34:29;10.95;;;2.60;;
51901;SDS011;37929;53.218;6.548;2023-12-20T12:36:56;10.07;;;2.47;;
51901;SDS011;37929;53.218;6.548;2023-12-20T12:39:23;10.05;;;3.20;;
51901;SDS011;37929;53.218;6.548;2023-12-20T12:41:52;12.25;;;2.72;;
51901;SDS011;37929;53.218;6.548;2023-12-20T12:44:18;14.57;;;2.88;;
51901;SDS011;37929;53.218;6.548;2023-12-20T12:46:45;13.23;;;2.97;;
51901;SDS011;37929;53.218;6.548;2023-12-20T12:49:11;10.38;;;2.38;;
51901;SDS011;37929;53.218;6.548;2023-12-20T12:51:37;12.32;;;2.33;;
51901;SDS011;37929;53.218;6.548;2023-12-20T12:54:03;10.00;;;2.90;;
51901;SDS011;37929;53.218;6.548;2023-12-20T12:56:29;12.15;;;2.70;;
51901;SDS011;37929;53.218;6.548;2023-12-20T12:58:56;10.77;;;2.38;;
51901;SDS011;37929;53.218;6.548;2023-12-20T13:01:21;6.72;;;1.83;;
51901;SDS011;37929;53.218;6.548;2023-12-20T13:03:50;7.68;;;2.05;;
51901;SDS011;37929;53.218;6.548;2023-12-20T13:06:16;10.48;;;2.15;;
51901;SDS011;37929;53.218;6.548;2023-12-20T13:08:42;11.63;;;2.90;;
51901;SDS011;37929;53.218;6.548;2023-12-20T13:11:11;12.55;;;2.33;;
51901;SDS011;37929;53.218;6.548;2023-12-20T13:13:37;13.82;;;2.40;;
51901;SDS011;37929;53.218;6.548;2023-12-20T13:16:02;13.02;;;2.28;;
51901;SDS011;37929;53.218;6.548;2023-12-20T13:18:29;9.50;;;2.40;;
51901;SDS011;37929;53.218;6.548;2023-12-20T13:20:54;11.55;;;2.58;;
51901;SDS011;37929;53.218;6.548;2023-12-20T13:23:20;13.38;;;2.65;;
51901;SDS011;37929;53.218;6.548;2023-12-20T13:25:46;11.05;;;2.03;;
51901;SDS011;37929;53.218;6.548;2023-12-20T13:28:12;14.38;;;2.55;;
51901;SDS011;37929;53.218;6.548;2023-12-20T13:30:38;9.48;;;2.35;;
51901;SDS011;37929;53.218;6.548;2023-12-20T13:33:06;9.43;;;1.80;;
51901;SDS011;37929;53.218;6.548;2023-12-20T13:35:33;10.32;;;3.20;;
51901;SDS011;37929;53.218;6.548;2023-12-20T13:37:59;13.23;;;2.95;;
51901;SDS011;37929;53.218;6.548;2023-12-20T13:40:25;11.40;;;4.22;;
51901;SDS011;37929;53.218;6.548;2023-12-20T13:42:51;10.45;;;4.47;;
51901;SDS011;37929;53.218;6.548;2023-12-20T13:45:17;10.07;;;3.38;;
51901;SDS011;37929;53.218;6.548;2023-12-20T13:47:43;9.43;;;3.38;;
51901;SDS011;37929;53.218;6.548;2023-12-20T13:50:09;10.55;;;3.13;;
51901;SDS011;37929;53.218;6.548;2023-12-20T13:52:35;10.23;;;2.65;;
51901;SDS011;37929;53.218;6.548;2023-12-20T13:55:01;11.18;;;3.17;;
51901;SDS011;37929;53.218;6.548;2023-12-20T13:57:27;10.90;;;2.53;;
51901;SDS011;37929;53.218;6.548;2023-12-20T13:59:54;7.90;;;2.58;;
51901;SDS011;37929;53.218;6.548;2023-12-20T14:02:23;7.18;;;2.20;;
51901;SDS011;37929;53.218;6.548;2023-12-20T14:04:48;12.10;;;3.17;;
51901;SDS011;37929;53.218;6.548;2023-12-20T14:07:14;10.82;;;2.05;;
51901;SDS011;37929;53.218;6.548;2023-12-20T14:09:40;13.73;;;3.05;;
51901;SDS011;37929;53.218;6.548;2023-12-20T14:12:10;7.53;;;1.90;;
51901;SDS011;37929;53.218;6.548;2023-12-20T14:14:37;7.78;;;2.00;;
51901;SDS011;37929;53.218;6.548;2023-12-20T14:17:03;10.88;;;2.08;;
51901;SDS011;37929;53.218;6.548;2023-12-20T14:19:29;9.07;;;1.67;;
51901;SDS011;37929;53.218;6.548;2023-12-20T14:21:55;8.35;;;2.00;;
51901;SDS011;37929;53.218;6.548;2023-12-20T14:24:20;7.00;;;1.95;;
51901;SDS011;37929;53.218;6.548;2023-12-20T14:26:46;5.90;;;2.00;;
51901;SDS011;37929;53.218;6.548;2023-12-20T14:29:12;11.45;;;2.67;;
51901;SDS011;37929;53.218;6.548;2023-12-20T14:31:41;10.27;;;2.95;;
51901;SDS011;37929;53.218;6.548;2023-12-20T14:34:07;6.65;;;3.05;;
51901;SDS011;37929;53.218;6.548;2023-12-20T14:36:34;9.35;;;2.50;;
51901;SDS011;37929;53.218;6.548;2023-12-20T14:39:00;4.32;;;1.77;;
51901;SDS011;37929;53.218;6.548;2023-12-20T14:41:27;6.35;;;1.48;;
51901;SDS011;37929;53.218;6.548;2023-12-20T14:43:53;7.57;;;1.52;;
51901;SDS011;37929;53.218;6.548;2023-12-20T14:46:18;7.50;;;1.55;;
51901;SDS011;37929;53.218;6.548;2023-12-20T14:48:44;4.93;;;1.40;;